Time;durP1;ratioP1;P1;durP2;ratioP2;P2;SDS_P1;SDS_P2;PMS_P1;PMS_P2;Temp;Humidity;BMP_temperature;BMP_pressure;BME280_temperature;BME280_humidity;BME280_pressure;Samples;Min_cycle;Max_cycle;Signal;HPM_P1;HPM_P2
2023/08/01 00:02:22;;;;;;;4.68;3.13;;;;;;;;;;5061873;28;20200;-63
2023/08/01 00:04:48;;;;;;;3.42;3.13;;;;;;;;;;5061953;28;20219;-63
2023/08/01 00:07:14;;;;;;;3.38;3.08;;;;;;;;;;5053871;28;20197;-63
2023/08/01 00:09:41;;;;;;;3.40;3.10;;;;;;;;;;5062024;28;20201;-63
2023/08/01 00:12:07;;;;;;;7.70;3.47;;;;;;;;;;5061694;28;20205;-63
2023/08/01 00:14:36;;;;;;;2.83;2.65;;;;;;;;;;5061791;28;20204;-63
2023/08/01 00:17:02;;;;;;;5.43;3.42;;;;;;;;;;5062030;28;20531;-63
2023/08/01 00:19:28;;;;;;;2.88;2.78;;;;;;;;;;5061977;28;20400;-63
2023/08/01 00:21:55;;;;;;;3.45;3.15;;;;;;;;;;5061680;28;20216;-63
2023/08/01 00:24:21;;;;;;;3.97;3.60;;;;;;;;;;5061601;28;20511;-63
2023/08/01 00:26:47;;;;;;;5.32;3.35;;;;;;;;;;5061551;28;20197;-63
2023/08/01 00:29:13;;;;;;;3.53;3.22;;;;;;;;;;5061552;28;20204;-63
2023/08/01 00:31:41;;;;;;;3.70;3.40;;;;;;;;;;5061861;28;20497;-63
2023/08/01 00:34:08;;;;;;;6.35;3.17;;;;;;;;;;5061372;28;20453;-63
2023/08/01 00:36:34;;;;;;;5.20;3.72;;;;;;;;;;5061747;28;20201;-63
2023/08/01 00:39:00;;;;;;;6.53;3.72;;;;;;;;;;5061565;28;20209;-63
2023/08/01 00:41:26;;;;;;;3.00;2.80;;;;;;;;;;5061396;28;20220;-63
2023/08/01 00:43:53;;;;;;;3.63;3.38;;;;;;;;;;5061527;28;20204;-63
2023/08/01 00:46:19;;;;;;;3.38;3.10;;;;;;;;;;5061760;28;20505;-63
2023/08/01 00:48:47;;;;;;;4.25;3.20;;;;;;;;;;5061743;28;20197;-63
2023/08/01 00:51:13;;;;;;;3.70;3.40;;;;;;;;;;5061525;28;20204;-63
2023/08/01 00:53:40;;;;;;;5.25;3.33;;;;;;;;;;5064765;28;20197;-63
2023/08/01 00:56:06;;;;;;;6.25;3.50;;;;;;;;;;5065270;28;20430;-63
2023/08/01 00:58:32;;;;;;;4.82;3.28;;;;;;;;;;5065731;28;20197;-63
2023/08/01 01:00:59;;;;;;;5.03;3.72;;;;;;;;;;5065231;28;20240;-63
2023/08/01 01:03:25;;;;;;;3.67;3.38;;;;;;;;;;5065544;28;20264;-63
2023/08/01 01:05:57;;;;;;;5.53;3.90;;;;;;;;;;5065344;28;20496;-63
2023/08/01 01:08:23;;;;;;;4.15;3.70;;;;;;;;;;5057644;28;20197;-63
2023/08/01 01:10:49;;;;;;;4.43;3.53;;;;;;;;;;5065388;28;20388;-63
2023/08/01 01:13:16;;;;;;;6.13;3.42;;;;;;;;;;5065198;28;20197;-63
2023/08/01 01:15:42;;;;;;;3.83;3.45;;;;;;;;;;5065261;28;20197;-63
2023/08/01 01:18:08;;;;;;;4.38;3.35;;;;;;;;;;5064895;28;20212;-63
2023/08/01 01:20:36;;;;;;;6.15;3.80;;;;;;;;;;5064945;28;20228;-63
2023/08/01 01:23:04;;;;;;;5.68;3.50;;;;;;;;;;5064651;28;20319;-63
2023/08/01 01:25:31;;;;;;;7.55;3.53;;;;;;;;;;5065169;28;20197;-63
2023/08/01 01:27:57;;;;;;;3.75;3.45;;;;;;;;;;5064963;28;20566;-63
2023/08/01 01:30:24;;;;;;;6.13;4.05;;;;;;;;;;5064869;28;20193;-63
2023/08/01 01:32:51;;;;;;;4.18;3.78;;;;;;;;;;5064622;28;20201;-63
2023/08/01 01:35:17;;;;;;;4.22;3.80;;;;;;;;;;5064634;28;20204;-63
2023/08/01 01:37:44;;;;;;;6.70;4.45;;;;;;;;;;5064333;28;20419;-63
2023/08/01 01:40:11;;;;;;;4.72;3.90;;;;;;;;;;5064672;28;20204;-63
2023/08/01 01:42:37;;;;;;;5.43;4.20;;;;;;;;;;5064496;28;20197;-63
2023/08/01 01:45:04;;;;;;;7.90;4.03;;;;;;;;;;5064637;28;20407;-63
2023/08/01 01:47:30;;;;;;;4.63;3.60;;;;;;;;;;5064509;28;20384;-63
2023/08/01 01:49:56;;;;;;;6.32;3.50;;;;;;;;;;5064590;28;20201;-63
2023/08/01 01:52:23;;;;;;;4.03;3.50;;;;;;;;;;5064433;28;20193;-63
2023/08/01 01:54:50;;;;;;;4.63;3.47;;;;;;;;;;5064304;28;20417;-63
2023/08/01 01:57:16;;;;;;;3.40;3.10;;;;;;;;;;5064407;28;20439;-63
2023/08/01 01:59:43;;;;;;;4.38;4.00;;;;;;;;;;5064420;28;20389;-63
2023/08/01 02:02:09;;;;;;;6.10;3.53;;;;;;;;;;5063833;28;20221;-63
2023/08/01 02:04:35;;;;;;;6.68;3.80;;;;;;;;;;5063306;28;20201;-63
2023/08/01 02:07:02;;;;;;;5.10;3.63;;;;;;;;;;5064234;28;20207;-63
2023/08/01 02:09:29;;;;;;;4.07;3.60;;;;;;;;;;5064172;28;20197;-63
2023/08/01 02:11:56;;;;;;;6.00;3.30;;;;;;;;;;5064134;28;20193;-63
2023/08/01 02:14:23;;;;;;;4.28;3.70;;;;;;;;;;5055847;28;20197;-63
2023/08/01 02:16:49;;;;;;;5.60;3.83;;;;;;;;;;5063874;28;20501;-63
2023/08/01 02:19:15;;;;;;;6.25;3.97;;;;;;;;;;5064231;28;20420;-63
2023/08/01 02:21:41;;;;;;;4.18;3.70;;;;;;;;;;5063942;28;20217;-63
2023/08/01 02:24:08;;;;;;;4.38;3.53;;;;;;;;;;5063728;28;20205;-63
2023/08/01 02:26:34;;;;;;;4.22;3.80;;;;;;;;;;5063898;28;20198;-63
2023/08/01 02:29:01;;;;;;;7.70;3.80;;;;;;;;;;5063724;28;20225;-63
2023/08/01 02:31:28;;;;;;;3.88;3.67;;;;;;;;;;5063711;28;20194;-63
2023/08/01 02:33:54;;;;;;;3.78;3.47;;;;;;;;;;5063719;28;20197;-63
2023/08/01 02:36:20;;;;;;;4.38;3.90;;;;;;;;;;5063554;28;20213;-63
2023/08/01 02:38:46;;;;;;;4.68;3.75;;;;;;;;;;5063576;28;20399;-63
2023/08/01 02:41:13;;;;;;;4.13;3.83;;;;;;;;;;5063785;28;20216;-63
2023/08/01 02:43:39;;;;;;;4.38;3.60;;;;;;;;;;5063354;28;20205;-63
2023/08/01 02:46:07;;;;;;;3.85;3.15;;;;;;;;;;5063371;28;20201;-63
2023/08/01 02:48:34;;;;;;;4.35;3.95;;;;;;;;;;5063446;28;20197;-63
2023/08/01 02:51:01;;;;;;;5.60;4.40;;;;;;;;;;5063391;28;20205;-63
2023/08/01 02:53:27;;;;;;;5.18;3.90;;;;;;;;;;5063173;28;20201;-63
2023/08/01 02:55:53;;;;;;;4.28;3.83;;;;;;;;;;5063498;28;20315;-63
2023/08/01 02:58:19;;;;;;;4.40;4.00;;;;;;;;;;5062984;28;20215;-63
2023/08/01 03:00:47;;;;;;;5.88;3.72;;;;;;;;;;5063066;28;20198;-63
2023/08/01 03:03:15;;;;;;;7.38;4.07;;;;;;;;;;5062955;28;20268;-63
2023/08/01 03:05:41;;;;;;;4.50;4.13;;;;;;;;;;5062040;28;20211;-63
2023/08/01 03:08:07;;;;;;;6.93;3.45;;;;;;;;;;5062659;28;20201;-63
2023/08/01 03:10:33;;;;;;;5.43;3.65;;;;;;;;;;5062859;28;20205;-63
2023/08/01 03:13:00;;;;;;;5.45;4.30;;;;;;;;;;5061721;28;20212;-63
2023/08/01 03:15:27;;;;;;;3.92;3.63;;;;;;;;;;5054001;28;20583;-63
2023/08/01 03:17:53;;;;;;;4.15;3.85;;;;;;;;;;5062157;28;20396;-63
2023/08/01 03:20:22;;;;;;;9.65;4.32;;;;;;;;;;5061829;28;20202;-63
2023/08/01 03:22:49;;;;;;;4.15;3.70;;;;;;;;;;5061665;28;20536;-63
2023/08/01 03:25:15;;;;;;;3.88;3.58;;;;;;;;;;5061829;28;20210;-63
2023/08/01 03:27:41;;;;;;;4.80;3.80;;;;;;;;;;5062621;28;20396;-63
2023/08/01 03:30:09;;;;;;;6.22;4.20;;;;;;;;;;5062711;28;20201;-63
2023/08/01 03:32:36;;;;;;;5.15;3.75;;;;;;;;;;5062284;28;20244;-63
2023/08/01 03:35:03;;;;;;;4.43;4.03;;;;;;;;;;5062612;28;20531;-63
2023/08/01 03:37:30;;;;;;;5.00;4.05;;;;;;;;;;5062439;28;20197;-63
2023/08/01 03:39:57;;;;;;;4.00;3.60;;;;;;;;;;5062391;28;20201;-63
2023/08/01 03:42:23;;;;;;;7.97;3.80;;;;;;;;;;5062487;28;20209;-63
2023/08/01 03:44:49;;;;;;;6.20;3.67;;;;;;;;;;5062314;28;20197;-63
2023/08/01 03:47:16;;;;;;;4.65;3.67;;;;;;;;;;5062335;28;20208;-63
2023/08/01 03:49:42;;;;;;;4.13;3.35;;;;;;;;;;5062311;28;20204;-63
2023/08/01 03:52:08;;;;;;;3.60;3.30;;;;;;;;;;5062177;28;20223;-63
2023/08/01 03:54:36;;;;;;;4.80;3.60;;;;;;;;;;5061909;28;20196;-63
2023/08/01 03:57:02;;;;;;;4.88;3.45;;;;;;;;;;5062098;28;20197;-63
2023/08/01 03:59:28;;;;;;;4.25;3.47;;;;;;;;;;5054035;28;20512;-63
2023/08/01 04:01:55;;;;;;;3.58;2.83;;;;;;;;;;5062197;28;20240;-63
2023/08/01 04:04:21;;;;;;;7.07;2.70;;;;;;;;;;5061659;28;20224;-63
2023/08/01 04:06:47;;;;;;;4.32;3.33;;;;;;;;;;5062060;28;20523;-64
2023/08/01 04:09:14;;;;;;;5.22;3.17;;;;;;;;;;5061790;28;20201;-63
2023/08/01 04:11:41;;;;;;;4.45;3.53;;;;;;;;;;5062151;28;20522;-63
2023/08/01 04:14:08;;;;;;;4.25;3.40;;;;;;;;;;5061874;28;20220;-63
2023/08/01 04:16:34;;;;;;;4.00;3.67;;;;;;;;;;5062321;28;20277;-65
2023/08/01 04:19:00;;;;;;;3.63;3.08;;;;;;;;;;5061948;28;20457;-65
2023/08/01 04:21:27;;;;;;;3.90;3.47;;;;;;;;;;5061578;28;20221;-65
2023/08/01 04:23:53;;;;;;;4.55;3.13;;;;;;;;;;5062136;28;20426;-65
2023/08/01 04:26:19;;;;;;;5.13;2.95;;;;;;;;;;5061667;28;20220;-65
2023/08/01 04:28:47;;;;;;;5.50;3.03;;;;;;;;;;5061764;28;20295;-65
2023/08/01 04:31:14;;;;;;;5.97;3.10;;;;;;;;;;5061436;28;20215;-65
2023/08/01 04:33:40;;;;;;;3.50;3.20;;;;;;;;;;5061613;28;20204;-65
2023/08/01 04:36:06;;;;;;;5.53;3.42;;;;;;;;;;5061549;28;20275;-65
2023/08/01 04:38:33;;;;;;;2.80;2.60;;;;;;;;;;5061598;28;20485;-65
2023/08/01 04:41:00;;;;;;;8.65;3.30;;;;;;;;;;5061884;28;20210;-65
2023/08/01 04:43:26;;;;;;;6.40;3.63;;;;;;;;;;5061405;28;20330;-65
2023/08/01 04:45:53;;;;;;;3.60;3.05;;;;;;;;;;5061836;28;20197;-65
2023/08/01 04:48:20;;;;;;;4.63;3.28;;;;;;;;;;5061495;28;20208;-65
2023/08/01 04:50:46;;;;;;;4.10;3.45;;;;;;;;;;5061560;28;20505;-65
2023/08/01 04:53:13;;;;;;;5.55;2.92;;;;;;;;;;5061440;28;20197;-65
2023/08/01 04:55:39;;;;;;;5.05;2.90;;;;;;;;;;5061743;28;20453;-65
2023/08/01 04:58:05;;;;;;;4.95;3.15;;;;;;;;;;5061636;28;20205;-64
2023/08/01 05:00:31;;;;;;;5.20;2.92;;;;;;;;;;5053407;28;20194;-64
2023/08/01 05:02:59;;;;;;;4.45;3.05;;;;;;;;;;5061583;28;20221;-64
2023/08/01 05:05:25;;;;;;;3.88;2.88;;;;;;;;;;5061244;28;20201;-64
2023/08/01 05:07:52;;;;;;;3.47;3.20;;;;;;;;;;5061715;28;20403;-64
2023/08/01 05:10:18;;;;;;;3.35;3.00;;;;;;;;;;5061592;28;20201;-64
2023/08/01 05:12:44;;;;;;;3.65;3.00;;;;;;;;;;5061367;28;20193;-64
2023/08/01 05:15:10;;;;;;;3.50;3.00;;;;;;;;;;5061353;28;20201;-64
2023/08/01 05:17:37;;;;;;;4.18;3.20;;;;;;;;;;5061387;28;20197;-64
2023/08/01 05:20:05;;;;;;;4.75;2.92;;;;;;;;;;5061232;28;20201;-64
2023/08/01 05:22:32;;;;;;;3.63;3.28;;;;;;;;;;5061222;28;20562;-64
2023/08/01 05:24:58;;;;;;;7.45;3.50;;;;;;;;;;5061258;28;20210;-64
2023/08/01 05:27:24;;;;;;;6.95;3.30;;;;;;;;;;5061168;28;20227;-65
2023/08/01 05:29:50;;;;;;;5.45;3.28;;;;;;;;;;5061446;28;20197;-65
2023/08/01 05:32:17;;;;;;;6.53;3.42;;;;;;;;;;5061184;28;20504;-65
2023/08/01 05:34:43;;;;;;;4.00;3.70;;;;;;;;;;5060967;28;20520;-65
2023/08/01 05:37:10;;;;;;;4.10;3.70;;;;;;;;;;5061199;28;20201;-65
2023/08/01 05:39:37;;;;;;;4.53;3.15;;;;;;;;;;5063015;28;20197;-65
2023/08/01 05:42:08;;;;;;;6.30;3.28;;;;;;;;;;5064787;28;20431;-65
2023/08/01 05:44:34;;;;;;;3.97;3.50;;;;;;;;;;5056365;28;20197;-65
2023/08/01 05:47:00;;;;;;;5.55;3.30;;;;;;;;;;5064550;28;20381;-65
2023/08/01 05:49:28;;;;;;;4.63;3.58;;;;;;;;;;5064569;28;20201;-65
2023/08/01 05:51:54;;;;;;;4.70;3.13;;;;;;;;;;5064472;28;20216;-65
2023/08/01 05:54:22;;;;;;;6.63;3.47;;;;;;;;;;5064642;28;20497;-65
2023/08/01 05:56:48;;;;;;;5.32;3.58;;;;;;;;;;5064483;28;20201;-65
2023/08/01 05:59:14;;;;;;;8.32;3.30;;;;;;;;;;5064418;28;20532;-65
2023/08/01 06:01:40;;;;;;;5.40;3.83;;;;;;;;;;5064057;28;20220;-65
2023/08/01 06:04:07;;;;;;;6.32;3.42;;;;;;;;;;5064269;28;20201;-65
2023/08/01 06:06:34;;;;;;;4.75;3.28;;;;;;;;;;5064490;28;20550;-65
2023/08/01 06:09:00;;;;;;;3.58;3.25;;;;;;;;;;5064242;28;20201;-65
2023/08/01 06:11:27;;;;;;;5.82;3.67;;;;;;;;;;5064073;28;20201;-65
2023/08/01 06:13:54;;;;;;;8.73;3.90;;;;;;;;;;5064031;28;20493;-65
2023/08/01 06:16:20;;;;;;;6.10;3.28;;;;;;;;;;5063999;28;20216;-65
2023/08/01 06:18:47;;;;;;;5.72;3.80;;;;;;;;;;5064144;28;20212;-65
2023/08/01 06:21:13;;;;;;;7.60;3.78;;;;;;;;;;5064105;28;20509;-65
2023/08/01 06:23:39;;;;;;;5.95;4.10;;;;;;;;;;5063752;28;20540;-65
2023/08/01 06:26:05;;;;;;;5.30;3.63;;;;;;;;;;5063997;28;20205;-64
2023/08/01 06:28:33;;;;;;;5.88;3.92;;;;;;;;;;5063830;28;20233;-65
2023/08/01 06:30:59;;;;;;;3.53;3.22;;;;;;;;;;5063755;28;20216;-65
2023/08/01 06:33:26;;;;;;;6.00;3.05;;;;;;;;;;5063525;28;20197;-52
2023/08/01 06:35:52;;;;;;;6.32;3.80;;;;;;;;;;5063848;28;20264;-52
2023/08/01 06:38:18;;;;;;;4.65;3.20;;;;;;;;;;5056002;28;20213;-54
2023/08/01 06:40:44;;;;;;;3.75;3.13;;;;;;;;;;5058367;28;20221;-53
2023/08/01 06:43:11;;;;;;;6.28;3.47;;;;;;;;;;5058047;28;20233;-52
2023/08/01 06:45:38;;;;;;;3.67;3.33;;;;;;;;;;5058261;28;20524;-55
2023/08/01 06:48:05;;;;;;;7.68;3.60;;;;;;;;;;5058351;28;20537;-53
2023/08/01 06:50:31;;;;;;;4.07;2.97;;;;;;;;;;5055858;28;20407;-55
2023/08/01 06:52:57;;;;;;;3.65;3.08;;;;;;;;;;5049662;28;20210;-53
2023/08/01 06:55:24;;;;;;;3.75;3.08;;;;;;;;;;5053198;28;20218;-54
2023/08/01 06:57:50;;;;;;;3.63;3.17;;;;;;;;;;5055083;28;20216;-54
2023/08/01 07:00:16;;;;;;;4.85;3.72;;;;;;;;;;5055217;28;20544;-55
2023/08/01 07:02:44;;;;;;;8.40;4.00;;;;;;;;;;5055184;28;20233;-54
2023/08/01 07:05:10;;;;;;;4.55;3.60;;;;;;;;;;5047756;28;20252;-54
2023/08/01 07:07:36;;;;;;;7.25;4.03;;;;;;;;;;5054706;28;20212;-55
2023/08/01 07:10:03;;;;;;;5.25;4.13;;;;;;;;;;5051243;28;20252;-53
2023/08/01 07:12:29;;;;;;;4.82;3.80;;;;;;;;;;5050733;28;20209;-56
2023/08/01 07:14:55;;;;;;;3.88;3.58;;;;;;;;;;5048209;28;20213;-55
2023/08/01 07:17:21;;;;;;;5.97;3.88;;;;;;;;;;5049172;28;20214;-54
2023/08/01 07:19:49;;;;;;;6.55;4.47;;;;;;;;;;5051048;28;20209;-54
2023/08/01 07:22:15;;;;;;;7.03;3.78;;;;;;;;;;5046869;28;20232;-56
2023/08/01 07:24:41;;;;;;;8.00;3.95;;;;;;;;;;5056076;28;20236;-55
2023/08/01 07:27:08;;;;;;;4.65;3.67;;;;;;;;;;5045723;28;20229;-54
2023/08/01 07:29:34;;;;;;;4.60;4.20;;;;;;;;;;5046372;28;20212;-54
2023/08/01 07:32:00;;;;;;;5.63;4.00;;;;;;;;;;5056677;28;20416;-53
2023/08/01 07:34:27;;;;;;;4.05;3.65;;;;;;;;;;5052094;28;20213;-55
2023/08/01 07:36:56;;;;;;;3.65;3.35;;;;;;;;;;5051460;28;20213;-55
2023/08/01 07:39:23;;;;;;;3.90;3.47;;;;;;;;;;5043557;28;20214;-54
2023/08/01 07:41:49;;;;;;;4.07;3.67;;;;;;;;;;5046371;28;20460;-55
2023/08/01 07:44:15;;;;;;;4.30;3.90;;;;;;;;;;5044294;28;20229;-54
2023/08/01 07:46:41;;;;;;;4.70;4.18;;;;;;;;;;5047791;28;20216;-56
2023/08/01 07:49:08;;;;;;;4.25;3.92;;;;;;;;;;5052957;28;20202;-55
2023/08/01 07:51:34;;;;;;;4.68;4.03;;;;;;;;;;5047341;28;20210;-56
2023/08/01 07:54:02;;;;;;;6.28;4.07;;;;;;;;;;5045861;28;20555;-55
2023/08/01 07:56:28;;;;;;;4.90;3.83;;;;;;;;;;5055898;28;20217;-56
2023/08/01 07:58:54;;;;;;;3.72;3.42;;;;;;;;;;5042919;28;20216;-55
2023/08/01 08:01:20;;;;;;;4.63;4.20;;;;;;;;;;5047613;28;20487;-55
2023/08/01 08:03:47;;;;;;;6.38;4.25;;;;;;;;;;5055614;28;20243;-55
2023/08/01 08:06:13;;;;;;;7.25;4.80;;;;;;;;;;5052433;28;20214;-55
2023/08/01 08:08:39;;;;;;;5.82;4.45;;;;;;;;;;5055739;28;20205;-55
2023/08/01 08:11:07;;;;;;;3.97;3.58;;;;;;;;;;5042710;28;20205;-55
2023/08/01 08:13:33;;;;;;;4.53;3.78;;;;;;;;;;5053921;28;20217;-53
2023/08/01 08:15:59;;;;;;;4.25;3.60;;;;;;;;;;5056094;28;20213;-54
2023/08/01 08:18:26;;;;;;;3.42;3.13;;;;;;;;;;5051045;28;20582;-55
2023/08/01 08:20:52;;;;;;;5.10;3.70;;;;;;;;;;5051350;28;20386;-55
2023/08/01 08:23:19;;;;;;;4.15;3.75;;;;;;;;;;5055274;28;20233;-54
2023/08/01 08:25:46;;;;;;;4.07;3.67;;;;;;;;;;5052430;28;20256;-54
2023/08/01 08:28:14;;;;;;;3.80;3.50;;;;;;;;;;5051534;28;20484;-54
2023/08/01 08:30:40;;;;;;;4.50;4.10;;;;;;;;;;5051059;28;20276;-55
2023/08/01 08:33:06;;;;;;;3.63;3.33;;;;;;;;;;5053821;28;20209;-55
2023/08/01 08:35:33;;;;;;;4.10;3.80;;;;;;;;;;5055832;28;20217;-55
2023/08/01 08:37:59;;;;;;;6.90;3.40;;;;;;;;;;5050384;28;20220;-55
2023/08/01 08:40:25;;;;;;;4.65;4.10;;;;;;;;;;5048317;28;20533;-54
2023/08/01 08:42:53;;;;;;;3.72;3.42;;;;;;;;;;5053866;28;20213;-54
2023/08/01 08:45:21;;;;;;;7.80;4.10;;;;;;;;;;5047190;28;20210;-55
2023/08/01 08:47:49;;;;;;;4.80;4.30;;;;;;;;;;5052043;28;20216;-56
2023/08/01 08:50:15;;;;;;;6.43;3.67;;;;;;;;;;5048639;28;20219;-55
2023/08/01 08:52:42;;;;;;;5.03;4.00;;;;;;;;;;5051720;28;20216;-56
2023/08/01 08:55:08;;;;;;;5.93;3.67;;;;;;;;;;5048994;28;20233;-56
2023/08/01 08:57:35;;;;;;;8.27;3.83;;;;;;;;;;5055856;28;20221;-54
2023/08/01 09:00:04;;;;;;;3.97;3.63;;;;;;;;;;5042480;28;20215;-55
2023/08/01 09:02:33;;;;;;;6.75;3.72;;;;;;;;;;5053803;28;20270;-55
2023/08/01 09:04:59;;;;;;;4.15;3.72;;;;;;;;;;5055112;28;20520;-54
2023/08/01 09:07:27;;;;;;;6.65;3.92;;;;;;;;;;5053164;28;20221;-55
2023/08/01 09:09:54;;;;;;;8.57;3.95;;;;;;;;;;5045999;28;20213;-54
2023/08/01 09:12:20;;;;;;;8.50;4.50;;;;;;;;;;5042304;28;20517;-55
2023/08/01 09:14:47;;;;;;;6.97;4.00;;;;;;;;;;5045674;28;20208;-53
2023/08/01 09:17:16;;;;;;;6.13;4.38;;;;;;;;;;5043878;28;20213;-53
2023/08/01 09:19:43;;;;;;;3.47;3.22;;;;;;;;;;5058513;28;20443;-53
2023/08/01 09:22:15;;;;;;;3.88;3.00;;;;;;;;;;5053431;28;20217;-52
2023/08/01 09:24:51;;;;;;;2.83;2.63;;;;;;;;;;5050315;28;20230;-54
2023/08/01 09:27:17;;;;;;;3.22;2.90;;;;;;;;;;5050329;28;20388;-53
2023/08/01 09:29:43;;;;;;;5.90;3.15;;;;;;;;;;5049943;28;20208;-54
2023/08/01 09:32:14;;;;;;;2.65;2.55;;;;;;;;;;5047501;28;20637;-53
2023/08/01 09:34:40;;;;;;;3.45;3.20;;;;;;;;;;5048406;28;20260;-55
2023/08/01 09:37:07;;;;;;;2.53;2.25;;;;;;;;;;5045955;28;20214;-52
2023/08/01 09:39:34;;;;;;;3.88;2.75;;;;;;;;;;5051827;28;20469;-53
2023/08/01 09:42:01;;;;;;;3.17;2.58;;;;;;;;;;5053916;28;20452;-52
2023/08/01 09:44:28;;;;;;;2.30;2.20;;;;;;;;;;5044446;28;20233;-53
2023/08/01 09:46:58;;;;;;;2.35;2.15;;;;;;;;;;5053444;28;20209;-54
2023/08/01 09:49:24;;;;;;;2.15;2.05;;;;;;;;;;5046807;28;20220;-54
2023/08/01 09:51:51;;;;;;;2.00;1.90;;;;;;;;;;5052131;28;20209;-54
2023/08/01 09:54:19;;;;;;;1.48;1.45;;;;;;;;;;5048946;28;20209;-53
2023/08/01 09:56:45;;;;;;;2.05;1.85;;;;;;;;;;5052014;28;20216;-54
2023/08/01 09:59:12;;;;;;;1.95;1.85;;;;;;;;;;5044045;28;20340;-54
2023/08/01 10:01:39;;;;;;;1.92;1.52;;;;;;;;;;5043669;28;20221;-54
2023/08/01 10:04:06;;;;;;;1.48;1.30;;;;;;;;;;5053129;28;20233;-53
2023/08/01 10:06:33;;;;;;;1.45;1.35;;;;;;;;;;5049466;28;20558;-55
2023/08/01 10:09:00;;;;;;;1.33;1.30;;;;;;;;;;5056359;28;20213;-55
2023/08/01 10:11:28;;;;;;;1.00;1.00;;;;;;;;;;5057640;28;20236;-55
2023/08/01 10:13:54;;;;;;;1.17;1.10;;;;;;;;;;5043872;28;20422;-55
2023/08/01 10:16:21;;;;;;;1.40;1.30;;;;;;;;;;5052914;28;20213;-55
2023/08/01 10:18:48;;;;;;;1.15;0.98;;;;;;;;;;5058111;28;20216;-55
2023/08/01 10:21:15;;;;;;;1.08;1.00;;;;;;;;;;5051899;28;20213;-55
2023/08/01 10:23:41;;;;;;;1.00;1.00;;;;;;;;;;5053580;28;20231;-54
2023/08/01 10:26:08;;;;;;;1.85;1.10;;;;;;;;;;5052537;28;20548;-54
2023/08/01 10:28:36;;;;;;;2.78;1.30;;;;;;;;;;5055228;28;20629;-54
2023/08/01 10:31:12;;;;;;;1.85;1.10;;;;;;;;;;5044988;28;20220;-54
2023/08/01 10:33:39;;;;;;;2.25;0.93;;;;;;;;;;5047756;28;20504;-54
2023/08/01 10:36:15;;;;;;;1.10;1.10;;;;;;;;;;5042299;28;20229;-53
2023/08/01 10:38:48;;;;;;;1.00;1.00;;;;;;;;;;5049561;28;20579;-54
2023/08/01 10:41:20;;;;;;;1.20;1.05;;;;;;;;;;5045333;28;20414;-55
2023/08/01 10:43:48;;;;;;;1.17;1.08;;;;;;;;;;5051571;28;20224;-55
2023/08/01 10:46:14;;;;;;;0.85;0.85;;;;;;;;;;5044710;28;20214;-54
2023/08/01 10:48:48;;;;;;;1.33;0.70;;;;;;;;;;5056549;28;20213;-55
2023/08/01 10:51:14;;;;;;;0.80;0.80;;;;;;;;;;5055323;28;20516;-56
2023/08/01 10:53:41;;;;;;;0.80;0.80;;;;;;;;;;5045652;28;20401;-53
2023/08/01 10:56:08;;;;;;;2.75;0.80;;;;;;;;;;5042663;28;20205;-54
2023/08/01 10:58:34;;;;;;;2.78;1.00;;;;;;;;;;5057270;28;20540;-55
2023/08/01 11:01:02;;;;;;;0.93;0.80;;;;;;;;;;5056326;28;20225;-55
2023/08/01 11:03:35;;;;;;;1.60;0.98;;;;;;;;;;5049071;28;20225;-55
2023/08/01 11:06:03;;;;;;;1.38;0.70;;;;;;;;;;5057163;28;20224;-55
2023/08/01 11:08:35;;;;;;;1.05;0.60;;;;;;;;;;5057225;28;20557;-53
2023/08/01 11:11:01;;;;;;;2.95;0.73;;;;;;;;;;5056285;28;20205;-55
2023/08/01 11:13:27;;;;;;;0.75;0.75;;;;;;;;;;5056500;28;20232;-53
2023/08/01 11:15:56;;;;;;;0.60;0.60;;;;;;;;;;5050279;28;20388;-54
2023/08/01 11:18:23;;;;;;;0.85;0.60;;;;;;;;;;5056682;28;20212;-55
2023/08/01 11:20:49;;;;;;;2.33;0.55;;;;;;;;;;5053958;28;20475;-54
2023/08/01 11:23:16;;;;;;;1.33;0.70;;;;;;;;;;5056659;28;20217;-52
2023/08/01 11:25:43;;;;;;;0.52;0.47;;;;;;;;;;5054595;28;20243;-53
2023/08/01 11:28:10;;;;;;;0.95;0.60;;;;;;;;;;5042464;28;20475;-53
2023/08/01 11:30:36;;;;;;;0.70;0.70;;;;;;;;;;5054884;28;20213;-53
2023/08/01 11:33:05;;;;;;;1.30;0.60;;;;;;;;;;5054106;28;20665;-53
2023/08/01 11:35:32;;;;;;;0.63;0.60;;;;;;;;;;5052550;28;20213;-56
2023/08/01 11:37:59;;;;;;;0.40;0.40;;;;;;;;;;5049028;28;20213;-55
2023/08/01 11:40:25;;;;;;;1.42;0.50;;;;;;;;;;5049567;28;20260;-55
2023/08/01 11:42:52;;;;;;;0.57;0.57;;;;;;;;;;5043302;28;20473;-54
2023/08/01 11:45:18;;;;;;;2.58;0.75;;;;;;;;;;5047041;28;20453;-54
2023/08/01 11:47:48;;;;;;;0.57;0.57;;;;;;;;;;5049929;28;20219;-53
2023/08/01 11:50:14;;;;;;;0.60;0.60;;;;;;;;;;5055159;28;20213;-55
2023/08/01 11:52:42;;;;;;;0.55;0.55;;;;;;;;;;5051152;28;20544;-54
2023/08/01 11:55:09;;;;;;;0.63;0.63;;;;;;;;;;5048109;28;20216;-53
2023/08/01 11:57:35;;;;;;;0.80;0.80;;;;;;;;;;5044959;28;20220;-53
2023/08/01 12:00:01;;;;;;;0.80;0.80;;;;;;;;;;5053056;28;20229;-53
2023/08/01 12:02:29;;;;;;;0.70;0.70;;;;;;;;;;5056392;28;20217;-55
2023/08/01 12:04:55;;;;;;;0.90;0.90;;;;;;;;;;5055799;28;20220;-56
2023/08/01 12:07:25;;;;;;;0.70;0.70;;;;;;;;;;5052327;28;20228;-54
2023/08/01 12:09:59;;;;;;;0.60;0.60;;;;;;;;;;5049662;28;20217;-54
2023/08/01 12:12:27;;;;;;;1.80;0.90;;;;;;;;;;5055517;28;20216;-53
2023/08/01 12:14:53;;;;;;;0.80;0.80;;;;;;;;;;5047860;28;20221;-55
2023/08/01 12:17:20;;;;;;;0.88;0.70;;;;;;;;;;5051230;28;20234;-54
2023/08/01 12:19:46;;;;;;;1.55;0.60;;;;;;;;;;5054813;28;20221;-53
2023/08/01 12:22:12;;;;;;;0.60;0.60;;;;;;;;;;5048294;28;20585;-53
2023/08/01 12:24:39;;;;;;;1.17;0.68;;;;;;;;;;5055493;28;20223;-52
2023/08/01 12:27:07;;;;;;;0.85;0.85;;;;;;;;;;5055552;28;20237;-52
2023/08/01 12:29:33;;;;;;;1.67;0.73;;;;;;;;;;5053634;28;20212;-55
2023/08/01 12:31:59;;;;;;;0.80;0.80;;;;;;;;;;5051983;28;20219;-55
2023/08/01 12:34:26;;;;;;;0.93;0.93;;;;;;;;;;5050905;28;20213;-54
2023/08/01 12:36:52;;;;;;;2.00;0.85;;;;;;;;;;5049260;28;20210;-54
2023/08/01 12:39:18;;;;;;;1.40;0.82;;;;;;;;;;5039206;28;20214;-53
2023/08/01 12:41:45;;;;;;;5.60;0.80;;;;;;;;;;5041739;28;20238;-53
2023/08/01 12:44:15;;;;;;;1.23;0.80;;;;;;;;;;5039658;28;20233;-53
2023/08/01 12:46:41;;;;;;;3.10;0.90;;;;;;;;;;5045297;28;20206;-53
2023/08/01 12:49:08;;;;;;;0.70;0.70;;;;;;;;;;5047242;28;20216;-53
2023/08/01 12:51:39;;;;;;;1.17;0.80;;;;;;;;;;5053485;28;20259;-53
2023/08/01 12:54:05;;;;;;;0.88;0.88;;;;;;;;;;5055091;28;20291;-53
2023/08/01 12:56:32;;;;;;;0.60;0.60;;;;;;;;;;5051662;28;20419;-53
2023/08/01 12:58:58;;;;;;;2.03;0.80;;;;;;;;;;5052300;28;20219;-53
2023/08/01 13:01:26;;;;;;;1.27;0.80;;;;;;;;;;5056530;28;20223;-54
2023/08/01 13:03:52;;;;;;;1.55;0.75;;;;;;;;;;5058076;28;20219;-52
2023/08/01 13:06:18;;;;;;;1.08;0.98;;;;;;;;;;5055576;28;20214;-52
2023/08/01 13:08:44;;;;;;;0.90;0.90;;;;;;;;;;5057008;28;20212;-53
2023/08/01 13:11:12;;;;;;;2.85;0.75;;;;;;;;;;5057365;28;20217;-53
2023/08/01 13:13:38;;;;;;;2.50;0.90;;;;;;;;;;5057902;28;20220;-54
2023/08/01 13:16:05;;;;;;;1.13;0.90;;;;;;;;;;5056362;28;20209;-52
2023/08/01 13:18:32;;;;;;;2.88;1.00;;;;;;;;;;5059294;28;20215;-53
2023/08/01 13:20:59;;;;;;;3.20;1.10;;;;;;;;;;5046154;28;20239;-54
2023/08/01 13:23:25;;;;;;;1.13;1.02;;;;;;;;;;5044081;28;20390;-53
2023/08/01 13:25:52;;;;;;;1.77;0.85;;;;;;;;;;5056113;28;20228;-53
2023/08/01 13:28:18;;;;;;;1.85;0.80;;;;;;;;;;5052481;28;20229;-54
2023/08/01 13:30:44;;;;;;;3.30;0.88;;;;;;;;;;5056785;28;20209;-53
2023/08/01 13:33:11;;;;;;;1.20;1.10;;;;;;;;;;5049985;28;20213;-53
2023/08/01 13:35:38;;;;;;;1.00;0.88;;;;;;;;;;5052278;28;20232;-53
2023/08/01 13:38:07;;;;;;;0.80;0.80;;;;;;;;;;5046353;28;20537;-53
2023/08/01 13:40:33;;;;;;;1.38;0.90;;;;;;;;;;5059034;28;20267;-53
2023/08/01 13:42:59;;;;;;;1.13;0.95;;;;;;;;;;5052934;28;20215;-54
2023/08/01 13:45:25;;;;;;;1.13;1.02;;;;;;;;;;5049146;28;20224;-52
2023/08/01 13:47:52;;;;;;;9.70;1.20;;;;;;;;;;5055412;28;20209;-54
2023/08/01 13:50:18;;;;;;;0.90;0.90;;;;;;;;;;5049223;28;20209;-53
2023/08/01 13:52:45;;;;;;;1.40;1.15;;;;;;;;;;5049331;28;20213;-54
2023/08/01 13:55:12;;;;;;;1.92;0.95;;;;;;;;;;5058361;28;20212;-53
2023/08/01 13:57:38;;;;;;;1.15;0.85;;;;;;;;;;5051418;28;20216;-53
2023/08/01 14:00:05;;;;;;;2.47;1.00;;;;;;;;;;5049952;28;20208;-53
2023/08/01 14:02:31;;;;;;;3.03;0.85;;;;;;;;;;5058664;28;20258;-55
2023/08/01 14:04:57;;;;;;;1.15;1.05;;;;;;;;;;5051149;28;20264;-54
2023/08/01 14:07:23;;;;;;;3.35;1.30;;;;;;;;;;5057956;28;20567;-53
2023/08/01 14:09:51;;;;;;;3.17;1.30;;;;;;;;;;5058085;28;20235;-54
2023/08/01 14:12:19;;;;;;;1.33;0.73;;;;;;;;;;5058911;28;20208;-54
2023/08/01 14:14:45;;;;;;;2.47;0.90;;;;;;;;;;5058858;28;20204;-53
2023/08/01 14:17:11;;;;;;;2.38;0.90;;;;;;;;;;5058926;28;20205;-55
2023/08/01 14:19:38;;;;;;;1.35;1.25;;;;;;;;;;5058895;28;20209;-53
2023/08/01 14:22:04;;;;;;;1.00;1.00;;;;;;;;;;5058953;28;20233;-53
2023/08/01 14:24:30;;;;;;;1.13;0.98;;;;;;;;;;5059374;28;20763;-52
2023/08/01 14:26:58;;;;;;;2.47;0.90;;;;;;;;;;5063687;28;20632;-65
2023/08/01 14:29:25;;;;;;;0.90;0.82;;;;;;;;;;5064118;28;20196;-65
2023/08/01 14:31:52;;;;;;;1.00;1.00;;;;;;;;;;5064151;28;20226;-65
2023/08/01 14:34:18;;;;;;;1.33;1.00;;;;;;;;;;5064286;28;20204;-65
2023/08/01 14:36:44;;;;;;;0.82;0.82;;;;;;;;;;5064380;28;20203;-65
2023/08/01 14:39:10;;;;;;;2.70;1.23;;;;;;;;;;5064209;28;20505;-65
2023/08/01 14:41:37;;;;;;;1.65;1.00;;;;;;;;;;5064001;28;20204;-65